ADDS TAF Data INFO
IDs: Format: Raw Decoded Include METARs

Data at: 0850 UTC 19 Nov 2017

KLBB 190753Z 28005KT 10SM CLR M03/M09 A3034 RMK AO2 SLP270 T10281094

KLBB 190520Z 1906/2006 32004KT P6SM SKC